sensor_id;sensor_type;location;lat;lon;timestamp;P1;durP1;ratioP1;P2;durP2;ratioP2
13083;SDS011;6608;48.790;9.198;2023-05-19T00:00:50;161.57;;;62.47;;
13083;SDS011;6608;48.790;9.198;2023-05-19T00:03:17;159.87;;;61.77;;
13083;SDS011;6608;48.790;9.198;2023-05-19T00:05:45;160.93;;;62.03;;
13083;SDS011;6608;48.790;9.198;2023-05-19T00:08:13;162.33;;;62.17;;
13083;SDS011;6608;48.790;9.198;2023-05-19T00:10:41;162.03;;;61.90;;
13083;SDS011;6608;48.790;9.198;2023-05-19T00:13:08;160.60;;;61.13;;
13083;SDS011;6608;48.790;9.198;2023-05-19T00:15:35;165.33;;;61.83;;
13083;SDS011;6608;48.790;9.198;2023-05-19T00:18:02;160.97;;;62.07;;
13083;SDS011;6608;48.790;9.198;2023-05-19T00:20:30;162.20;;;61.27;;
13083;SDS011;6608;48.790;9.198;2023-05-19T00:22:56;165.93;;;61.57;;
13083;SDS011;6608;48.790;9.198;2023-05-19T00:25:22;169.57;;;60.93;;
13083;SDS011;6608;48.790;9.198;2023-05-19T00:27:49;159.47;;;62.07;;
13083;SDS011;6608;48.790;9.198;2023-05-19T00:30:16;158.80;;;62.20;;
13083;SDS011;6608;48.790;9.198;2023-05-19T00:32:42;162.33;;;61.23;;
13083;SDS011;6608;48.790;9.198;2023-05-19T00:35:10;162.10;;;61.57;;
13083;SDS011;6608;48.790;9.198;2023-05-19T00:37:37;159.23;;;61.60;;
13083;SDS011;6608;48.790;9.198;2023-05-19T00:40:03;163.27;;;61.13;;
13083;SDS011;6608;48.790;9.198;2023-05-19T00:42:30;159.47;;;61.87;;
13083;SDS011;6608;48.790;9.198;2023-05-19T00:44:57;162.43;;;62.10;;
13083;SDS011;6608;48.790;9.198;2023-05-19T00:47:23;155.93;;;61.40;;
13083;SDS011;6608;48.790;9.198;2023-05-19T00:49:50;156.43;;;61.03;;
13083;SDS011;6608;48.790;9.198;2023-05-19T00:52:17;158.67;;;60.87;;
13083;SDS011;6608;48.790;9.198;2023-05-19T00:54:44;157.63;;;59.47;;
13083;SDS011;6608;48.790;9.198;2023-05-19T00:57:10;158.47;;;61.20;;
13083;SDS011;6608;48.790;9.198;2023-05-19T00:59:37;159.50;;;61.57;;
13083;SDS011;6608;48.790;9.198;2023-05-19T01:02:04;162.43;;;62.23;;
13083;SDS011;6608;48.790;9.198;2023-05-19T01:04:31;165.70;;;63.03;;
13083;SDS011;6608;48.790;9.198;2023-05-19T01:06:58;162.60;;;61.07;;
13083;SDS011;6608;48.790;9.198;2023-05-19T01:09:26;170.37;;;61.70;;
13083;SDS011;6608;48.790;9.198;2023-05-19T01:11:54;168.53;;;61.87;;
13083;SDS011;6608;48.790;9.198;2023-05-19T01:14:20;158.23;;;61.10;;
13083;SDS011;6608;48.790;9.198;2023-05-19T01:16:49;157.93;;;61.53;;
13083;SDS011;6608;48.790;9.198;2023-05-19T01:19:25;156.97;;;61.00;;
13083;SDS011;6608;48.790;9.198;2023-05-19T01:22:16;157.63;;;60.37;;
13083;SDS011;6608;48.790;9.198;2023-05-19T01:25:05;159.07;;;60.47;;
13083;SDS011;6608;48.790;9.198;2023-05-19T01:27:40;166.83;;;61.63;;
13083;SDS011;6608;48.790;9.198;2023-05-19T01:30:17;166.10;;;60.60;;
13083;SDS011;6608;48.790;9.198;2023-05-19T01:32:47;156.57;;;61.43;;
13083;SDS011;6608;48.790;9.198;2023-05-19T01:35:16;161.60;;;61.23;;
13083;SDS011;6608;48.790;9.198;2023-05-19T01:37:42;161.93;;;61.57;;
13083;SDS011;6608;48.790;9.198;2023-05-19T01:40:10;157.03;;;60.83;;
13083;SDS011;6608;48.790;9.198;2023-05-19T01:42:36;157.00;;;61.97;;
13083;SDS011;6608;48.790;9.198;2023-05-19T01:45:04;155.97;;;60.10;;
13083;SDS011;6608;48.790;9.198;2023-05-19T01:47:34;157.83;;;61.30;;
13083;SDS011;6608;48.790;9.198;2023-05-19T01:50:04;154.77;;;60.10;;
13083;SDS011;6608;48.790;9.198;2023-05-19T01:52:30;160.77;;;61.63;;
13083;SDS011;6608;48.790;9.198;2023-05-19T01:54:57;159.20;;;61.57;;
13083;SDS011;6608;48.790;9.198;2023-05-19T01:57:26;158.23;;;60.93;;
13083;SDS011;6608;48.790;9.198;2023-05-19T01:59:56;160.73;;;60.93;;
13083;SDS011;6608;48.790;9.198;2023-05-19T02:02:25;167.87;;;61.63;;
13083;SDS011;6608;48.790;9.198;2023-05-19T02:04:54;166.77;;;61.57;;
13083;SDS011;6608;48.790;9.198;2023-05-19T02:07:25;157.80;;;60.90;;
13083;SDS011;6608;48.790;9.198;2023-05-19T02:09:53;163.13;;;61.00;;
13083;SDS011;6608;48.790;9.198;2023-05-19T02:12:27;157.80;;;60.70;;
13083;SDS011;6608;48.790;9.198;2023-05-19T02:15:05;170.47;;;62.13;;
13083;SDS011;6608;48.790;9.198;2023-05-19T02:17:33;157.17;;;60.90;;
13083;SDS011;6608;48.790;9.198;2023-05-19T02:20:00;157.40;;;60.80;;
13083;SDS011;6608;48.790;9.198;2023-05-19T02:22:29;156.87;;;60.17;;
13083;SDS011;6608;48.790;9.198;2023-05-19T02:24:56;156.87;;;60.33;;
13083;SDS011;6608;48.790;9.198;2023-05-19T02:27:22;159.77;;;60.87;;
13083;SDS011;6608;48.790;9.198;2023-05-19T02:29:50;171.13;;;61.60;;
13083;SDS011;6608;48.790;9.198;2023-05-19T02:32:17;156.00;;;60.80;;
13083;SDS011;6608;48.790;9.198;2023-05-19T02:34:43;158.80;;;60.60;;
13083;SDS011;6608;48.790;9.198;2023-05-19T02:37:10;156.73;;;60.93;;
13083;SDS011;6608;48.790;9.198;2023-05-19T02:39:39;157.93;;;60.57;;
13083;SDS011;6608;48.790;9.198;2023-05-19T02:42:05;155.70;;;60.83;;
13083;SDS011;6608;48.790;9.198;2023-05-19T02:44:31;156.80;;;60.67;;
13083;SDS011;6608;48.790;9.198;2023-05-19T02:46:58;156.33;;;60.40;;
13083;SDS011;6608;48.790;9.198;2023-05-19T02:49:24;157.17;;;61.37;;
13083;SDS011;6608;48.790;9.198;2023-05-19T02:51:50;158.80;;;61.27;;
13083;SDS011;6608;48.790;9.198;2023-05-19T02:54:17;157.63;;;60.70;;
13083;SDS011;6608;48.790;9.198;2023-05-19T02:56:45;156.20;;;61.20;;
13083;SDS011;6608;48.790;9.198;2023-05-19T02:59:11;156.20;;;60.93;;
13083;SDS011;6608;48.790;9.198;2023-05-19T03:01:37;157.17;;;60.23;;
13083;SDS011;6608;48.790;9.198;2023-05-19T03:04:04;163.53;;;61.07;;
13083;SDS011;6608;48.790;9.198;2023-05-19T03:06:30;154.27;;;60.40;;
13083;SDS011;6608;48.790;9.198;2023-05-19T03:08:57;157.33;;;60.97;;
13083;SDS011;6608;48.790;9.198;2023-05-19T03:11:23;159.37;;;61.43;;
13083;SDS011;6608;48.790;9.198;2023-05-19T03:13:51;157.07;;;60.70;;
13083;SDS011;6608;48.790;9.198;2023-05-19T03:16:18;157.70;;;60.73;;
13083;SDS011;6608;48.790;9.198;2023-05-19T03:18:44;158.93;;;60.87;;
13083;SDS011;6608;48.790;9.198;2023-05-19T03:21:11;155.63;;;59.67;;
13083;SDS011;6608;48.790;9.198;2023-05-19T03:23:37;160.57;;;61.87;;
13083;SDS011;6608;48.790;9.198;2023-05-19T03:26:03;158.40;;;60.57;;
13083;SDS011;6608;48.790;9.198;2023-05-19T03:28:30;169.33;;;61.83;;
13083;SDS011;6608;48.790;9.198;2023-05-19T03:30:58;159.37;;;60.93;;
13083;SDS011;6608;48.790;9.198;2023-05-19T03:33:24;167.60;;;60.80;;
13083;SDS011;6608;48.790;9.198;2023-05-19T03:35:51;160.63;;;60.70;;
13083;SDS011;6608;48.790;9.198;2023-05-19T03:38:18;154.27;;;60.33;;
13083;SDS011;6608;48.790;9.198;2023-05-19T03:40:45;157.83;;;60.40;;
13083;SDS011;6608;48.790;9.198;2023-05-19T03:43:11;154.30;;;61.17;;
13083;SDS011;6608;48.790;9.198;2023-05-19T03:45:37;153.83;;;61.03;;
13083;SDS011;6608;48.790;9.198;2023-05-19T03:48:06;156.53;;;61.97;;
13083;SDS011;6608;48.790;9.198;2023-05-19T03:50:32;153.97;;;60.50;;
13083;SDS011;6608;48.790;9.198;2023-05-19T03:52:59;156.97;;;61.17;;
13083;SDS011;6608;48.790;9.198;2023-05-19T03:55:25;152.70;;;60.97;;
13083;SDS011;6608;48.790;9.198;2023-05-19T03:57:53;154.30;;;61.23;;
13083;SDS011;6608;48.790;9.198;2023-05-19T04:00:20;153.27;;;60.63;;
13083;SDS011;6608;48.790;9.198;2023-05-19T04:02:46;156.70;;;61.80;;
13083;SDS011;6608;48.790;9.198;2023-05-19T04:05:14;154.73;;;61.40;;
13083;SDS011;6608;48.790;9.198;2023-05-19T04:07:40;155.33;;;60.23;;
13083;SDS011;6608;48.790;9.198;2023-05-19T04:10:07;151.90;;;60.03;;
13083;SDS011;6608;48.790;9.198;2023-05-19T04:12:33;153.57;;;60.07;;
13083;SDS011;6608;48.790;9.198;2023-05-19T04:15:00;150.53;;;59.67;;
13083;SDS011;6608;48.790;9.198;2023-05-19T04:17:26;153.33;;;61.23;;
13083;SDS011;6608;48.790;9.198;2023-05-19T04:19:53;153.87;;;60.50;;
13083;SDS011;6608;48.790;9.198;2023-05-19T04:22:21;152.73;;;61.13;;
13083;SDS011;6608;48.790;9.198;2023-05-19T04:24:47;154.70;;;61.37;;
13083;SDS011;6608;48.790;9.198;2023-05-19T04:27:15;159.67;;;61.87;;
13083;SDS011;6608;48.790;9.198;2023-05-19T04:29:42;153.87;;;60.50;;
13083;SDS011;6608;48.790;9.198;2023-05-19T04:32:10;158.10;;;62.47;;
13083;SDS011;6608;48.790;9.198;2023-05-19T04:34:41;157.93;;;60.60;;
13083;SDS011;6608;48.790;9.198;2023-05-19T04:37:09;150.90;;;58.57;;
13083;SDS011;6608;48.790;9.198;2023-05-19T04:39:37;153.63;;;58.97;;
13083;SDS011;6608;48.790;9.198;2023-05-19T04:42:06;152.10;;;59.23;;
13083;SDS011;6608;48.790;9.198;2023-05-19T04:44:34;148.50;;;58.17;;
13083;SDS011;6608;48.790;9.198;2023-05-19T04:47:01;151.63;;;58.70;;
13083;SDS011;6608;48.790;9.198;2023-05-19T04:49:30;150.60;;;59.03;;
13083;SDS011;6608;48.790;9.198;2023-05-19T04:51:56;154.83;;;60.63;;
13083;SDS011;6608;48.790;9.198;2023-05-19T04:54:22;152.13;;;60.60;;
13083;SDS011;6608;48.790;9.198;2023-05-19T04:56:51;153.57;;;60.73;;
13083;SDS011;6608;48.790;9.198;2023-05-19T04:59:20;157.20;;;61.87;;
13083;SDS011;6608;48.790;9.198;2023-05-19T05:01:47;155.97;;;61.53;;
13083;SDS011;6608;48.790;9.198;2023-05-19T05:04:13;155.40;;;61.93;;
13083;SDS011;6608;48.790;9.198;2023-05-19T05:06:40;153.00;;;60.90;;
13083;SDS011;6608;48.790;9.198;2023-05-19T05:09:11;153.60;;;61.60;;
13083;SDS011;6608;48.790;9.198;2023-05-19T05:11:38;151.53;;;60.53;;
13083;SDS011;6608;48.790;9.198;2023-05-19T05:14:06;153.70;;;61.60;;
13083;SDS011;6608;48.790;9.198;2023-05-19T05:16:33;152.50;;;59.73;;
13083;SDS011;6608;48.790;9.198;2023-05-19T05:19:00;152.00;;;60.63;;
13083;SDS011;6608;48.790;9.198;2023-05-19T05:21:27;154.10;;;61.30;;
13083;SDS011;6608;48.790;9.198;2023-05-19T05:23:53;151.87;;;61.30;;
13083;SDS011;6608;48.790;9.198;2023-05-19T05:26:20;153.37;;;60.97;;
13083;SDS011;6608;48.790;9.198;2023-05-19T05:28:47;156.33;;;61.03;;
13083;SDS011;6608;48.790;9.198;2023-05-19T05:31:15;154.37;;;61.17;;
13083;SDS011;6608;48.790;9.198;2023-05-19T05:33:41;154.07;;;60.77;;
13083;SDS011;6608;48.790;9.198;2023-05-19T05:36:08;154.23;;;60.63;;
13083;SDS011;6608;48.790;9.198;2023-05-19T05:38:34;162.07;;;61.37;;
13083;SDS011;6608;48.790;9.198;2023-05-19T05:41:01;155.07;;;61.47;;
13083;SDS011;6608;48.790;9.198;2023-05-19T05:43:27;156.17;;;61.40;;
13083;SDS011;6608;48.790;9.198;2023-05-19T05:45:54;154.37;;;61.80;;
13083;SDS011;6608;48.790;9.198;2023-05-19T05:48:22;157.37;;;63.13;;
13083;SDS011;6608;48.790;9.198;2023-05-19T05:50:48;155.27;;;62.13;;
13083;SDS011;6608;48.790;9.198;2023-05-19T05:53:16;154.20;;;62.13;;
13083;SDS011;6608;48.790;9.198;2023-05-19T05:55:43;153.73;;;61.30;;
13083;SDS011;6608;48.790;9.198;2023-05-19T05:58:10;155.53;;;61.70;;
13083;SDS011;6608;48.790;9.198;2023-05-19T06:00:36;156.63;;;60.80;;
13083;SDS011;6608;48.790;9.198;2023-05-19T06:03:03;156.77;;;62.00;;
13083;SDS011;6608;48.790;9.198;2023-05-19T06:05:31;161.07;;;61.73;;
13083;SDS011;6608;48.790;9.198;2023-05-19T06:07:57;158.90;;;62.37;;
13083;SDS011;6608;48.790;9.198;2023-05-19T06:10:23;166.23;;;62.57;;
13083;SDS011;6608;48.790;9.198;2023-05-19T06:12:50;158.07;;;62.00;;
13083;SDS011;6608;48.790;9.198;2023-05-19T06:15:16;159.80;;;62.80;;
13083;SDS011;6608;48.790;9.198;2023-05-19T06:17:42;160.07;;;61.77;;
13083;SDS011;6608;48.790;9.198;2023-05-19T06:20:09;159.87;;;63.20;;
13083;SDS011;6608;48.790;9.198;2023-05-19T06:22:38;160.63;;;62.57;;
13083;SDS011;6608;48.790;9.198;2023-05-19T06:25:05;169.80;;;64.70;;
13083;SDS011;6608;48.790;9.198;2023-05-19T06:27:32;166.67;;;64.10;;
13083;SDS011;6608;48.790;9.198;2023-05-19T06:29:59;162.50;;;63.93;;
13083;SDS011;6608;48.790;9.198;2023-05-19T06:32:25;174.03;;;69.70;;
13083;SDS011;6608;48.790;9.198;2023-05-19T06:34:53;160.87;;;62.80;;
13083;SDS011;6608;48.790;9.198;2023-05-19T06:37:20;163.33;;;63.97;;
13083;SDS011;6608;48.790;9.198;2023-05-19T06:39:48;168.93;;;64.37;;
13083;SDS011;6608;48.790;9.198;2023-05-19T06:42:16;165.33;;;65.30;;
13083;SDS011;6608;48.790;9.198;2023-05-19T06:44:46;164.10;;;64.43;;
13083;SDS011;6608;48.790;9.198;2023-05-19T06:47:12;165.57;;;63.87;;
13083;SDS011;6608;48.790;9.198;2023-05-19T06:49:38;161.40;;;63.53;;
13083;SDS011;6608;48.790;9.198;2023-05-19T06:52:05;166.47;;;65.23;;
13083;SDS011;6608;48.790;9.198;2023-05-19T06:54:31;161.57;;;63.30;;
13083;SDS011;6608;48.790;9.198;2023-05-19T06:56:59;160.60;;;61.60;;
13083;SDS011;6608;48.790;9.198;2023-05-19T06:59:25;163.27;;;63.47;;
13083;SDS011;6608;48.790;9.198;2023-05-19T07:01:52;166.43;;;65.20;;
13083;SDS011;6608;48.790;9.198;2023-05-19T07:04:18;164.17;;;64.73;;
13083;SDS011;6608;48.790;9.198;2023-05-19T07:06:44;168.30;;;64.97;;
13083;SDS011;6608;48.790;9.198;2023-05-19T07:09:11;163.53;;;64.37;;
13083;SDS011;6608;48.790;9.198;2023-05-19T07:11:37;163.63;;;64.30;;
13083;SDS011;6608;48.790;9.198;2023-05-19T07:14:05;161.53;;;63.97;;
13083;SDS011;6608;48.790;9.198;2023-05-19T07:16:32;163.73;;;64.30;;
13083;SDS011;6608;48.790;9.198;2023-05-19T07:18:58;165.30;;;64.20;;
13083;SDS011;6608;48.790;9.198;2023-05-19T07:21:24;162.27;;;64.23;;
13083;SDS011;6608;48.790;9.198;2023-05-19T07:23:51;166.50;;;64.50;;
13083;SDS011;6608;48.790;9.198;2023-05-19T07:26:17;163.27;;;63.90;;
13083;SDS011;6608;48.790;9.198;2023-05-19T07:28:44;164.57;;;64.07;;
13083;SDS011;6608;48.790;9.198;2023-05-19T07:31:11;162.03;;;63.70;;
13083;SDS011;6608;48.790;9.198;2023-05-19T07:33:38;163.20;;;64.10;;
13083;SDS011;6608;48.790;9.198;2023-05-19T07:36:04;163.80;;;64.30;;
13083;SDS011;6608;48.790;9.198;2023-05-19T07:38:31;165.73;;;64.23;;
13083;SDS011;6608;48.790;9.198;2023-05-19T07:40:58;161.27;;;63.37;;
13083;SDS011;6608;48.790;9.198;2023-05-19T07:43:25;161.30;;;63.83;;
13083;SDS011;6608;48.790;9.198;2023-05-19T07:45:51;165.57;;;65.37;;
13083;SDS011;6608;48.790;9.198;2023-05-19T07:48:21;160.77;;;63.10;;
13083;SDS011;6608;48.790;9.198;2023-05-19T07:50:50;164.60;;;64.57;;
13083;SDS011;6608;48.790;9.198;2023-05-19T07:53:16;168.27;;;65.47;;
13083;SDS011;6608;48.790;9.198;2023-05-19T07:55:43;166.97;;;64.27;;
13083;SDS011;6608;48.790;9.198;2023-05-19T07:58:09;166.97;;;64.90;;
13083;SDS011;6608;48.790;9.198;2023-05-19T08:00:36;166.17;;;63.90;;
13083;SDS011;6608;48.790;9.198;2023-05-19T08:03:02;170.50;;;64.40;;
13083;SDS011;6608;48.790;9.198;2023-05-19T08:05:30;164.93;;;64.60;;
13083;SDS011;6608;48.790;9.198;2023-05-19T08:07:56;165.73;;;64.00;;
13083;SDS011;6608;48.790;9.198;2023-05-19T08:10:23;162.80;;;64.60;;
13083;SDS011;6608;48.790;9.198;2023-05-19T08:12:49;166.23;;;63.73;;
13083;SDS011;6608;48.790;9.198;2023-05-19T08:15:16;165.33;;;64.30;;
13083;SDS011;6608;48.790;9.198;2023-05-19T08:17:43;160.60;;;63.43;;
13083;SDS011;6608;48.790;9.198;2023-05-19T08:20:09;165.97;;;64.97;;
13083;SDS011;6608;48.790;9.198;2023-05-19T08:22:38;161.00;;;63.13;;
13083;SDS011;6608;48.790;9.198;2023-05-19T08:25:04;162.70;;;63.37;;
13083;SDS011;6608;48.790;9.198;2023-05-19T08:27:31;164.70;;;63.97;;
13083;SDS011;6608;48.790;9.198;2023-05-19T08:29:57;164.77;;;64.20;;
13083;SDS011;6608;48.790;9.198;2023-05-19T08:32:24;167.37;;;64.00;;
13083;SDS011;6608;48.790;9.198;2023-05-19T08:34:50;164.87;;;64.27;;
13083;SDS011;6608;48.790;9.198;2023-05-19T08:37:17;163.83;;;64.27;;
13083;SDS011;6608;48.790;9.198;2023-05-19T08:39:45;169.00;;;66.13;;
13083;SDS011;6608;48.790;9.198;2023-05-19T08:42:11;163.80;;;65.47;;
13083;SDS011;6608;48.790;9.198;2023-05-19T08:44:37;169.63;;;64.50;;
13083;SDS011;6608;48.790;9.198;2023-05-19T08:47:06;163.80;;;64.53;;
13083;SDS011;6608;48.790;9.198;2023-05-19T08:49:40;177.67;;;73.07;;
13083;SDS011;6608;48.790;9.198;2023-05-19T08:52:08;171.13;;;64.97;;
13083;SDS011;6608;48.790;9.198;2023-05-19T08:54:40;164.27;;;64.20;;
13083;SDS011;6608;48.790;9.198;2023-05-19T08:57:10;165.40;;;64.80;;
13083;SDS011;6608;48.790;9.198;2023-05-19T08:59:37;164.97;;;64.13;;
13083;SDS011;6608;48.790;9.198;2023-05-19T09:02:04;165.13;;;65.70;;
13083;SDS011;6608;48.790;9.198;2023-05-19T09:04:31;167.07;;;65.40;;
13083;SDS011;6608;48.790;9.198;2023-05-19T09:06:58;166.00;;;64.10;;
13083;SDS011;6608;48.790;9.198;2023-05-19T09:09:27;168.37;;;64.67;;
13083;SDS011;6608;48.790;9.198;2023-05-19T09:11:54;166.27;;;64.20;;
13083;SDS011;6608;48.790;9.198;2023-05-19T09:14:22;164.97;;;64.10;;
13083;SDS011;6608;48.790;9.198;2023-05-19T09:16:48;165.80;;;64.50;;
13083;SDS011;6608;48.790;9.198;2023-05-19T09:19:16;165.90;;;64.10;;
13083;SDS011;6608;48.790;9.198;2023-05-19T09:21:44;168.00;;;65.00;;
13083;SDS011;6608;48.790;9.198;2023-05-19T09:24:11;165.43;;;65.87;;
13083;SDS011;6608;48.790;9.198;2023-05-19T09:26:37;163.27;;;64.17;;
13083;SDS011;6608;48.790;9.198;2023-05-19T09:29:09;172.80;;;67.90;;
13083;SDS011;6608;48.790;9.198;2023-05-19T09:31:37;170.00;;;65.37;;
13083;SDS011;6608;48.790;9.198;2023-05-19T09:34:04;166.93;;;64.57;;
13083;SDS011;6608;48.790;9.198;2023-05-19T09:36:37;172.97;;;65.43;;
13083;SDS011;6608;48.790;9.198;2023-05-19T09:39:11;172.73;;;67.70;;
13083;SDS011;6608;48.790;9.198;2023-05-19T09:41:38;169.57;;;64.57;;
13083;SDS011;6608;48.790;9.198;2023-05-19T09:44:04;169.37;;;64.70;;
13083;SDS011;6608;48.790;9.198;2023-05-19T09:46:31;164.60;;;63.93;;
13083;SDS011;6608;48.790;9.198;2023-05-19T09:49:01;165.67;;;65.03;;
13083;SDS011;6608;48.790;9.198;2023-05-19T09:51:33;165.63;;;64.33;;
13083;SDS011;6608;48.790;9.198;2023-05-19T09:54:00;164.77;;;62.57;;
13083;SDS011;6608;48.790;9.198;2023-05-19T09:56:30;168.43;;;64.93;;
13083;SDS011;6608;48.790;9.198;2023-05-19T09:58:57;168.67;;;64.50;;
13083;SDS011;6608;48.790;9.198;2023-05-19T10:01:23;169.70;;;64.97;;
13083;SDS011;6608;48.790;9.198;2023-05-19T10:03:50;166.07;;;64.97;;
13083;SDS011;6608;48.790;9.198;2023-05-19T10:06:19;164.13;;;64.33;;
13083;SDS011;6608;48.790;9.198;2023-05-19T10:08:45;166.20;;;65.67;;
13083;SDS011;6608;48.790;9.198;2023-05-19T10:11:13;167.37;;;66.23;;
13083;SDS011;6608;48.790;9.198;2023-05-19T10:13:40;171.23;;;64.90;;
13083;SDS011;6608;48.790;9.198;2023-05-19T10:16:07;168.47;;;64.87;;
13083;SDS011;6608;48.790;9.198;2023-05-19T10:18:33;165.47;;;64.63;;
13083;SDS011;6608;48.790;9.198;2023-05-19T10:21:00;164.83;;;64.50;;
13083;SDS011;6608;48.790;9.198;2023-05-19T10:23:28;166.90;;;65.77;;
13083;SDS011;6608;48.790;9.198;2023-05-19T10:25:55;169.07;;;65.53;;
13083;SDS011;6608;48.790;9.198;2023-05-19T10:28:23;167.60;;;65.50;;
13083;SDS011;6608;48.790;9.198;2023-05-19T10:30:52;168.30;;;65.17;;
13083;SDS011;6608;48.790;9.198;2023-05-19T10:33:19;165.83;;;64.47;;
13083;SDS011;6608;48.790;9.198;2023-05-19T10:36:01;167.27;;;65.37;;
13083;SDS011;6608;48.790;9.198;2023-05-19T10:38:36;170.03;;;66.23;;
13083;SDS011;6608;48.790;9.198;2023-05-19T10:41:09;166.33;;;65.50;;
13083;SDS011;6608;48.790;9.198;2023-05-19T10:43:43;170.03;;;65.40;;
13083;SDS011;6608;48.790;9.198;2023-05-19T10:46:10;169.60;;;65.27;;
13083;SDS011;6608;48.790;9.198;2023-05-19T10:48:36;166.57;;;64.63;;
13083;SDS011;6608;48.790;9.198;2023-05-19T10:51:03;169.40;;;65.63;;
13083;SDS011;6608;48.790;9.198;2023-05-19T10:53:30;162.97;;;64.27;;
13083;SDS011;6608;48.790;9.198;2023-05-19T10:55:59;163.33;;;61.97;;
13083;SDS011;6608;48.790;9.198;2023-05-19T10:58:37;165.17;;;65.23;;
13083;SDS011;6608;48.790;9.198;2023-05-19T11:01:07;168.57;;;64.53;;
13083;SDS011;6608;48.790;9.198;2023-05-19T11:03:43;165.30;;;64.73;;
13083;SDS011;6608;48.790;9.198;2023-05-19T11:06:17;164.50;;;64.03;;
13083;SDS011;6608;48.790;9.198;2023-05-19T11:08:44;166.77;;;65.23;;
13083;SDS011;6608;48.790;9.198;2023-05-19T11:11:13;162.50;;;64.00;;
13083;SDS011;6608;48.790;9.198;2023-05-19T11:13:41;167.90;;;65.57;;
13083;SDS011;6608;48.790;9.198;2023-05-19T11:16:08;188.93;;;78.77;;
13083;SDS011;6608;48.790;9.198;2023-05-19T11:18:35;164.77;;;64.87;;
13083;SDS011;6608;48.790;9.198;2023-05-19T11:21:02;167.30;;;65.10;;
13083;SDS011;6608;48.790;9.198;2023-05-19T11:23:29;166.67;;;64.20;;
13083;SDS011;6608;48.790;9.198;2023-05-19T11:25:59;165.67;;;65.07;;
13083;SDS011;6608;48.790;9.198;2023-05-19T11:28:28;162.87;;;64.90;;
13083;SDS011;6608;48.790;9.198;2023-05-19T11:30:56;168.93;;;65.80;;
13083;SDS011;6608;48.790;9.198;2023-05-19T11:33:23;165.37;;;64.53;;
13083;SDS011;6608;48.790;9.198;2023-05-19T11:35:51;166.57;;;66.50;;
13083;SDS011;6608;48.790;9.198;2023-05-19T11:38:18;168.93;;;66.30;;
13083;SDS011;6608;48.790;9.198;2023-05-19T11:40:44;165.63;;;65.23;;
13083;SDS011;6608;48.790;9.198;2023-05-19T11:43:11;166.60;;;65.63;;
13083;SDS011;6608;48.790;9.198;2023-05-19T11:45:39;163.03;;;64.27;;
13083;SDS011;6608;48.790;9.198;2023-05-19T11:48:06;164.87;;;64.30;;
13083;SDS011;6608;48.790;9.198;2023-05-19T11:50:36;167.40;;;64.10;;
13083;SDS011;6608;48.790;9.198;2023-05-19T11:53:02;166.57;;;65.13;;
13083;SDS011;6608;48.790;9.198;2023-05-19T11:55:28;169.10;;;65.53;;
13083;SDS011;6608;48.790;9.198;2023-05-19T11:57:55;170.37;;;66.27;;
13083;SDS011;6608;48.790;9.198;2023-05-19T12:00:22;163.67;;;63.67;;
13083;SDS011;6608;48.790;9.198;2023-05-19T12:02:50;168.17;;;65.07;;
13083;SDS011;6608;48.790;9.198;2023-05-19T12:05:17;171.73;;;65.97;;
13083;SDS011;6608;48.790;9.198;2023-05-19T12:07:43;171.57;;;69.60;;
13083;SDS011;6608;48.790;9.198;2023-05-19T12:10:13;169.07;;;65.77;;
13083;SDS011;6608;48.790;9.198;2023-05-19T12:12:40;172.17;;;66.00;;
13083;SDS011;6608;48.790;9.198;2023-05-19T12:15:09;166.63;;;65.10;;
13083;SDS011;6608;48.790;9.198;2023-05-19T12:17:36;167.03;;;65.33;;
13083;SDS011;6608;48.790;9.198;2023-05-19T12:20:04;171.63;;;65.00;;
13083;SDS011;6608;48.790;9.198;2023-05-19T12:22:31;166.30;;;65.20;;
13083;SDS011;6608;48.790;9.198;2023-05-19T12:24:58;166.77;;;65.47;;
13083;SDS011;6608;48.790;9.198;2023-05-19T12:27:25;167.23;;;64.80;;
13083;SDS011;6608;48.790;9.198;2023-05-19T12:29:53;169.63;;;66.67;;
13083;SDS011;6608;48.790;9.198;2023-05-19T12:32:21;168.10;;;66.83;;
13083;SDS011;6608;48.790;9.198;2023-05-19T12:34:48;166.70;;;65.83;;
13083;SDS011;6608;48.790;9.198;2023-05-19T12:37:16;172.87;;;68.40;;
13083;SDS011;6608;48.790;9.198;2023-05-19T12:39:43;168.93;;;66.00;;
13083;SDS011;6608;48.790;9.198;2023-05-19T12:42:10;173.20;;;67.50;;
13083;SDS011;6608;48.790;9.198;2023-05-19T12:44:37;167.80;;;65.80;;
13083;SDS011;6608;48.790;9.198;2023-05-19T12:47:04;171.10;;;65.60;;
13083;SDS011;6608;48.790;9.198;2023-05-19T12:49:32;169.67;;;67.10;;
13083;SDS011;6608;48.790;9.198;2023-05-19T12:51:59;173.17;;;67.07;;
13083;SDS011;6608;48.790;9.198;2023-05-19T12:54:28;169.87;;;65.97;;
13083;SDS011;6608;48.790;9.198;2023-05-19T12:56:57;171.10;;;66.03;;
13083;SDS011;6608;48.790;9.198;2023-05-19T12:59:24;167.33;;;66.03;;
13083;SDS011;6608;48.790;9.198;2023-05-19T13:01:55;168.97;;;66.27;;
13083;SDS011;6608;48.790;9.198;2023-05-19T13:04:22;167.30;;;65.60;;
13083;SDS011;6608;48.790;9.198;2023-05-19T13:06:48;168.90;;;67.17;;
13083;SDS011;6608;48.790;9.198;2023-05-19T13:09:14;172.50;;;65.77;;
13083;SDS011;6608;48.790;9.198;2023-05-19T13:11:43;169.63;;;65.77;;
13083;SDS011;6608;48.790;9.198;2023-05-19T13:14:10;171.90;;;66.53;;
13083;SDS011;6608;48.790;9.198;2023-05-19T13:16:37;170.80;;;65.83;;
13083;SDS011;6608;48.790;9.198;2023-05-19T13:19:03;169.20;;;65.67;;
13083;SDS011;6608;48.790;9.198;2023-05-19T13:21:30;163.77;;;64.60;;
13083;SDS011;6608;48.790;9.198;2023-05-19T13:23:56;168.80;;;66.70;;
13083;SDS011;6608;48.790;9.198;2023-05-19T13:26:23;171.63;;;66.90;;
13083;SDS011;6608;48.790;9.198;2023-05-19T13:28:50;167.23;;;64.87;;
13083;SDS011;6608;48.790;9.198;2023-05-19T13:31:17;170.37;;;65.67;;
13083;SDS011;6608;48.790;9.198;2023-05-19T13:33:44;167.27;;;66.37;;
13083;SDS011;6608;48.790;9.198;2023-05-19T13:36:10;168.43;;;66.60;;
13083;SDS011;6608;48.790;9.198;2023-05-19T13:38:36;172.60;;;66.63;;
13083;SDS011;6608;48.790;9.198;2023-05-19T13:41:04;168.67;;;66.23;;
13083;SDS011;6608;48.790;9.198;2023-05-19T13:43:31;173.73;;;65.37;;
13083;SDS011;6608;48.790;9.198;2023-05-19T13:45:59;172.03;;;65.77;;
13083;SDS011;6608;48.790;9.198;2023-05-19T13:48:26;178.07;;;69.47;;
13083;SDS011;6608;48.790;9.198;2023-05-19T13:50:52;169.63;;;67.47;;
13083;SDS011;6608;48.790;9.198;2023-05-19T13:53:19;166.90;;;65.17;;
13083;SDS011;6608;48.790;9.198;2023-05-19T13:55:46;163.73;;;63.83;;
13083;SDS011;6608;48.790;9.198;2023-05-19T13:58:12;170.37;;;66.67;;
13083;SDS011;6608;48.790;9.198;2023-05-19T14:00:40;167.57;;;65.67;;
13083;SDS011;6608;48.790;9.198;2023-05-19T14:03:08;171.47;;;66.73;;
13083;SDS011;6608;48.790;9.198;2023-05-19T14:05:35;167.37;;;65.97;;
13083;SDS011;6608;48.790;9.198;2023-05-19T14:08:02;175.43;;;68.70;;
13083;SDS011;6608;48.790;9.198;2023-05-19T14:10:29;166.83;;;64.63;;
13083;SDS011;6608;48.790;9.198;2023-05-19T14:12:55;167.53;;;65.63;;
13083;SDS011;6608;48.790;9.198;2023-05-19T14:15:23;172.00;;;65.77;;
13083;SDS011;6608;48.790;9.198;2023-05-19T14:17:50;167.63;;;65.97;;
13083;SDS011;6608;48.790;9.198;2023-05-19T14:20:18;166.83;;;64.53;;
13083;SDS011;6608;48.790;9.198;2023-05-19T14:22:44;177.03;;;67.30;;